Hatteras, NC (27943)

11:20 AM EST on February 12, 2016 (GMT -0500)
NOS_NWLON | | Change Station
CLOSE
Current Station
Personal Weather Station
Location: Hatteras, NC
Elevation: 0 ft
Nearby Weather Stations
Active Advisory: Winter Storm Warning

Elev 0 ft 35.21 °N, 75.70 °W | Updated 44 minutes ago

Overcast
Overcast
37 °F
Feels Like 29 °F
N
11
Wind Variable Wind from NE
Gusts 16.0 mph

Today
High -- | Low -- °F
--% Chance of Precip.
Yesterday
High -- | Low -- °F
Precip. -- in
Pressure 30.23 in
Visibility 10.0 miles
Clouds Scattered Clouds 3600 ft
Overcast 5500 ft
Windchill 29 °F
Dew Point Not available.
Humidity Not available.
Rainfall in
Snow Depth Not available.
6:52 AM 5:41 PM
Waxing Crescent, 21% visible
METAR KHSE 121551Z AUTO 07008G16KT 10SM SCT036 OVC055 03/M04 A3023 RMK AO2 SLP237 T00331039 TSNO
Pressure 30.23 in
Visibility 10.0 miles
Clouds Scattered Clouds 3600 ft
Overcast 5500 ft
Windchill 29 °F
Dew Point Not available.
Humidity Not available.
Rainfall in
Snow Depth Not available.
6:52 AM 5:41 PM
Waxing Crescent, 21% visible
METAR KHSE 121551Z AUTO 07008G16KT 10SM SCT036 OVC055 03/M04 A3023 RMK AO2 SLP237 T00331039 TSNO

10-Day Weather Forecast

Almanac

Astronomy

Feb. 12, 2016 Rise Set
Actual Time
Civil Twilight
Nautical Twilight
Astronomical Twilight
Moon
Length of Visible Light
Length of Day
Tomorrow will be .
, % of the Moon is Illuminated

Today's Extremes

State Highs State Lows

Community

WunderPhotos

Upload Photos

1,892,350 photos uploaded!

WunderBlog® & News

Nearby

Air Quality

  Air Quality AQ Index Pollutant
Not available.

Snow Depth

Station Depth Elevation

Earthquake Activity

City Distance Mag. Time & Date
Minimum magnitude displayed is 2.5.

Coastal Water Temperatures

Place Temperature

Stations

Nearby Weather Stations

Station Location Temp. Windchill Dew Point Humidity Wind Precip. Elev Updated Type
                   

Watches & Warnings

Winter Storm Warning
Issued: 3:10 AM EST Feb. 12, 2016 – National Weather Service

... Winter Storm Warning remains in effect from 7 am this morning
to midnight EST tonight...

* accumulations... snow accumulation of 1 to 3 inches... along with
a trace to 1/10 inch of ice. The highest snow amounts are
expected north of a line from Washington to Oregon Inlet.

* Timing... from mid morning through mid evening.

* Impacts... slick spots will likely develop on areas roads...
especially bridges and overpasses.

Precautionary/preparedness actions...

A Winter Storm Warning for snow and sleet means winter weather
conditions are expected or occurring. Monitor NOAA Weather Radio
for the latest information... forecasts... and warnings.